Other Surface Observations
Issued by NWS

Home | Current Version | Previous Version | Text Only | Print | Product List | Glossary On
Versions: 1 2 3 4 5 6 7 8 9 10 11 12 13 14 15 16 17 18 19 20 21 22 23 24 25 26 27 28 29 30 31 32 33 34 35 36 37 38 39 40 41 42 43 44 45 46 47 48 49 50
000
SXUS51 KWBC 282019
OSONT
:SHEF ENCODED 6-MINUTE NOS MET DATA
:NATIONAL WATER LEVEL OBSERVATION NETWORK (NWLON)
:TA(AIR TEMP DEG F)  SLP(SEA LEVEL PRESSURE INCHES)
:UD(WIND DIRECTION WHOLE DEGREES) US (WIND SPEED MPH)
:TW(WATER TEMP DEG F) UG(WIND GUSTS MPH) WC(CONDUCTIVITY uMHOS/CM)
:-9999 (MISSING VALUES)
:PROVIDED BY DOC/NOAA/NOS/CO-OPS, (301) 713-2540
:corms@noaa.gov
.E PSBM1 20210728 Z DH2006/TAIRP/DIN06/   71/   71
.E PSBM1 20210728 Z DH2006/PLIRP/DIN06/29.95/29.95
.E PSBM1 20210728 Z DH2006/USIRP/DIN06/    7/    8
.E PSBM1 20210728 Z DH2006/UDIRP/DIN06/  317/  330
.E PSBM1 20210728 Z DH2006/UGIRP/DIN06/   12/   13
.E PSBM1 20210728 Z DH2006/TWIRP/DIN06/   53/   53
.E PSBM1 20210728 Z DH2000/TAIRG/DIN06/   71/   71
.E PSBM1 20210728 Z DH2000/PLIRG/DIN06/29.95/29.95
.E PSBM1 20210728 Z DH2000/USIRG/DIN06/    6/    7
.E PSBM1 20210728 Z DH2000/UDIRG/DIN06/  305/  317
.E PSBM1 20210728 Z DH2000/UGIRG/DIN06/   12/   12
.E PSBM1 20210728 Z DH2000/TWIRG/DIN06/   53/   53
.E CFWM1 20210728 Z DH2006/TAIRP/DIN06/   68/   68
.E CFWM1 20210728 Z DH2006/PLIRP/DIN06/29.91/29.91
.E CFWM1 20210728 Z DH2006/USIRP/DIN06/    5/    3
.E CFWM1 20210728 Z DH2006/UDIRP/DIN06/  103/   99
.E CFWM1 20210728 Z DH2006/UGIRP/DIN06/    6/    6
.E CFWM1 20210728 Z DH2006/TWIRP/DIN06/   53/   53
.E CFWM1 20210728 Z DH2006/TAIRG/DIN06/   68/   68
.E CFWM1 20210728 Z DH2006/PLIRG/DIN06/29.91/29.91
.E CFWM1 20210728 Z DH2006/USIRG/DIN06/    5/    3
.E CFWM1 20210728 Z DH2006/UDIRG/DIN06/  103/   99
.E CFWM1 20210728 Z DH2006/UGIRG/DIN06/    6/    6
.E CFWM1 20210728 Z DH2006/TWIRG/DIN06/   53/   53
.E ATGM1 20210728 Z DH2006/TAIRG/DIN06/   71/   71
.E ATGM1 20210728 Z DH2006/PLIRG/DIN06/29.94/29.94
.E ATGM1 20210728 Z DH2006/USIRG/DIN06/    9/    8
.E ATGM1 20210728 Z DH2006/UDIRG/DIN06/  352/  351
.E ATGM1 20210728 Z DH2006/UGIRG/DIN06/   12/   11
.E CASM1 20210728 Z DH2006/TAIRP/DIN06/   71/   71
.E CASM1 20210728 Z DH2006/TWIRP/DIN06/   62/   62
.E CASM1 20210728 Z DH2000/TAIRG/DIN06/   70/   71
.E CASM1 20210728 Z DH2000/TWIRG/DIN06/   62/   62
.E WELM1 20210728 Z DH2006/TAIRG/DIN06/   67/   67
.E WELM1 20210728 Z DH2006/PLIRG/DIN06/30.00/30.00
.E WELM1 20210728 Z DH2006/USIRG/DIN06/   11/   10
.E WELM1 20210728 Z DH2006/UDIRG/DIN06/  190/  186
.E WELM1 20210728 Z DH2006/UGIRG/DIN06/   13/   12
.E WELM1 20210728 Z DH2006/TWIRG/DIN06/   65/   65
.E BHBM3 20210728 Z DH2006/TAIRP/DIN06/   70/   70
.E BHBM3 20210728 Z DH2006/PLIRP/DIN06/29.99/29.99
.A BHBM3 20210728 Z DH2006/TAIRG    70/UGIRG -9999/PLIRG 29.99/UDIRG -9999/USIRG -9999/TWIRG -9999/WCIRG -9999
.E FRVM3 20210728 Z DH2006/TAIRP/DIN06/   76/   75
.E FRVM3 20210728 Z DH2006/PLIRP/DIN06/30.01/30.01
.E FRVM3 20210728 Z DH2006/TWIRP/DIN06/   74/   74
.E FRVM3 20210728 Z DH2000/TAIRG/DIN06/   78/   76
.E FRVM3 20210728 Z DH2000/PLIRG/DIN06/30.01/30.01
.E FRVM3 20210728 Z DH2000/WCIRG/DIN06/39240/38920
.E FRVM3 20210728 Z DH2000/TWIRG/DIN06/   74/   74
.E BLTM3 20210728 Z DH2006/TAIRP/DIN06/   77/   77
.E BLTM3 20210728 Z DH2006/PLIRP/DIN06/30.00/30.00
.E BLTM3 20210728 Z DH2006/USIRP/DIN06/   11/    9
.E BLTM3 20210728 Z DH2006/UDIRP/DIN06/   51/   35
.E BLTM3 20210728 Z DH2006/UGIRP/DIN06/   13/   12
.E BLTM3 20210728 Z DH2006/TAIRG/DIN06/   77/   77
.E BLTM3 20210728 Z DH2006/PLIRG/DIN06/30.00/30.00
.E BLTM3 20210728 Z DH2006/USIRG/DIN06/   11/    9
.E BLTM3 20210728 Z DH2006/UDIRG/DIN06/   51/   35
.E BLTM3 20210728 Z DH2006/UGIRG/DIN06/   13/   12
.E FRXM3 20210728 Z DH2006/TAIRP/DIN06/   74/   74
.E FRXM3 20210728 Z DH2000/TAIRG/DIN06/   74/   74
.E CHTM3 20210728 Z DH2006/TAIRP/DIN06/   69/   69
.E CHTM3 20210728 Z DH2006/PLIRP/DIN06/30.00/30.00
.E CHTM3 20210728 Z DH2006/USIRP/DIN06/   13/   13
.E CHTM3 20210728 Z DH2006/UDIRP/DIN06/   28/   27
.E CHTM3 20210728 Z DH2006/UGIRP/DIN06/   16/   16
.E CHTM3 20210728 Z DH2006/TWIRP/DIN06/   71/   71
.E CHTM3 20210728 Z DH2000/TAIRG/DIN06/   68/   69
.E CHTM3 20210728 Z DH2000/PLIRG/DIN06/30.00/30.00
.E CHTM3 20210728 Z DH2000/USIRG/DIN06/   14/   13
.E CHTM3 20210728 Z DH2000/UDIRG/DIN06/   22/   28
.E CHTM3 20210728 Z DH2000/UGIRG/DIN06/   17/   16
.E CHTM3 20210728 Z DH2000/TWIRG/DIN06/   71/   71
.E BZBM3 20210728 Z DH2006/TAIRP/DIN06/   71/   72
.E BZBM3 20210728 Z DH2006/PLIRP/DIN06/30.00/30.00
.E BZBM3 20210728 Z DH2006/TWIRP/DIN06/   74/   74
.E BZBM3 20210728 Z DH2000/TAIRG/DIN06/   72/   71
.E BZBM3 20210728 Z DH2000/PLIRG/DIN06/30.00/30.00
.E BZBM3 20210728 Z DH2000/TWIRG/DIN06/   74/   74
.E NTKM3 20210728 Z DH2006/TAIRP/DIN06/   71/   71
.E NTKM3 20210728 Z DH2006/PLIRP/DIN06/30.00/30.00
.E NTKM3 20210728 Z DH2006/USIRP/DIN06/   11/    9
.E NTKM3 20210728 Z DH2006/UDIRP/DIN06/   35/   40
.E NTKM3 20210728 Z DH2006/UGIRP/DIN06/   15/   14
.E NTKM3 20210728 Z DH2006/TWIRP/DIN06/   76/   76
.E NTKM3 20210728 Z DH2000/TAIRG/DIN06/   70/   71
.E NTKM3 20210728 Z DH2000/PLIRG/DIN06/30.00/30.00
.E NTKM3 20210728 Z DH2000/USIRG/DIN06/   10/   11
.E NTKM3 20210728 Z DH2000/UDIRG/DIN06/   42/   35
.E NTKM3 20210728 Z DH2000/UGIRG/DIN06/   13/   15
.E NTKM3 20210728 Z DH2000/TWIRG/DIN06/   76/   76
.E PRUR1 20210728 Z DH2006/TAIRP/DIN06/   73/   73
.E PRUR1 20210728 Z DH2006/TAIRG/DIN06/   73/   73
.E NWPR1 20210728 Z DH2006/USIRP/DIN06/    9/    7
.E NWPR1 20210728 Z DH2006/UDIRP/DIN06/   21/   12
.E NWPR1 20210728 Z DH2006/UGIRP/DIN06/   13/   11
.E CPTR1 20210728 Z DH2006/TAIRP/DIN06/   76/   76
.E CPTR1 20210728 Z DH2006/PLIRP/DIN06/29.99/29.99
.E CPTR1 20210728 Z DH2006/TWIRP/DIN06/   75/   75
.E CPTR1 20210728 Z DH2000/TAIRG/DIN06/   75/   76
.E CPTR1 20210728 Z DH2000/PLIRG/DIN06/29.99/29.99
.E CPTR1 20210728 Z DH2000/TWIRG/DIN06/   75/   75
.E PTCR1 20210728 Z DH2006/TAIRP/DIN06/   75/   75
.E PTCR1 20210728 Z DH2006/PLIRP/DIN06/30.02/30.02
.E PTCR1 20210728 Z DH2000/TAIRG/DIN06/   75/   75
.E PTCR1 20210728 Z DH2000/PLIRG/DIN06/30.02/30.02
.E PVDR1 20210728 Z DH2006/TAIRP/DIN06/   76/   78
.E PVDR1 20210728 Z DH2006/PLIRP/DIN06/30.01/30.01
.E PVDR1 20210728 Z DH2006/TAIRG/DIN06/   76/   78
.E PVDR1 20210728 Z DH2006/PLIRG/DIN06/30.01/30.01
.E FOXR1 20210728 Z DH2000/TAIRG/DIN06/   73/   73
.E FOXR1 20210728 Z DH2000/PLIRG/DIN06/30.00/30.00
.E FOXR1 20210728 Z DH2000/USIRG/DIN06/    3/    3
.E FOXR1 20210728 Z DH2000/UDIRG/DIN06/   72/   77
.E FOXR1 20210728 Z DH2000/UGIRG/DIN06/    6/    9
.E FOXR1 20210728 Z DH2000/TWIRG/DIN06/   70/   70
.E QPTR1 20210728 Z DH2006/TAIRP/DIN06/   72/   72
.E QPTR1 20210728 Z DH2006/PLIRP/DIN06/30.00/30.00
.E QPTR1 20210728 Z DH2006/USIRP/DIN06/    7/    6
.E QPTR1 20210728 Z DH2006/UDIRP/DIN06/   48/   57
.E QPTR1 20210728 Z DH2006/UGIRP/DIN06/    8/    9
.E QPTR1 20210728 Z DH2006/TWIRP/DIN06/   73/   73
.E QPTR1 20210728 Z DH2000/TAIRG/DIN06/   72/   72
.E QPTR1 20210728 Z DH2000/PLIRG/DIN06/30.00/30.00
.E QPTR1 20210728 Z DH2000/USIRG/DIN06/    7/    7
.E QPTR1 20210728 Z DH2000/UDIRG/DIN06/   52/   48
.E QPTR1 20210728 Z DH2000/UGIRG/DIN06/   10/    8
.E QPTR1 20210728 Z DH2000/WCIRG/DIN06/29280/29280
.E QPTR1 20210728 Z DH2000/TWIRG/DIN06/   73/   73
.E NLNC3 20210728 Z DH2000/TAIRG/DIN06/   76/   76
.E NLNC3 20210728 Z DH2000/PLIRG/DIN06/30.00/30.01
.E NLNC3 20210728 Z DH2000/TWIRG/DIN06/   68/   68
.E NWHC3 20210728 Z DH2006/TAIRP/DIN06/   74/   74
.E NWHC3 20210728 Z DH2006/PLIRP/DIN06/30.01/30.01
.E NWHC3 20210728 Z DH2006/USIRP/DIN06/   12/   13
.E NWHC3 20210728 Z DH2006/UDIRP/DIN06/  183/  180
.E NWHC3 20210728 Z DH2006/UGIRP/DIN06/   15/   15
.E NWHC3 20210728 Z DH2006/TWIRP/DIN06/   74/   74
.A NWHC3 20210728 Z DH2006/TAIRG    74/UGIRG    15/PLIRG 30.01/UDIRG   183/USIRG    12/TWIRG    74/WCIRG -9999
.E BRHC3 20210728 Z DH2006/TAIRP/DIN06/   74/   74
.E BRHC3 20210728 Z DH2006/PLIRP/DIN06/29.98/29.98
.E BRHC3 20210728 Z DH2006/USIRP/DIN06/   10/    9
.E BRHC3 20210728 Z DH2006/UDIRP/DIN06/  155/  155
.E BRHC3 20210728 Z DH2006/UGIRP/DIN06/   12/   12
.E BRHC3 20210728 Z DH2006/TWIRP/DIN06/   73/   73
.E BRHC3 20210728 Z DH2000/TAIRG/DIN06/   74/   74
.E BRHC3 20210728 Z DH2000/PLIRG/DIN06/29.98/29.98
.E BRHC3 20210728 Z DH2000/USIRG/DIN06/   11/   10
.E BRHC3 20210728 Z DH2000/UDIRG/DIN06/  154/  155
.E BRHC3 20210728 Z DH2000/UGIRG/DIN06/   13/   12
.E BRHC3 20210728 Z DH2000/TWIRG/DIN06/   73/   73
.E MTKN6 20210728 Z DH2006/TAIRP/DIN06/   72/   73
.E MTKN6 20210728 Z DH2006/PLIRP/DIN06/30.00/30.00
.E MTKN6 20210728 Z DH2006/TWIRP/DIN06/   72/   72
.A MTKN6 20210728 Z DH2006/TAIRG    72/UGIRG -9999/PLIRG 30.00/UDIRG -9999/USIRG -9999/TWIRG    72/WCIRG -9999
.E KPTN6 20210728 Z DH2006/TAIRP/DIN06/   78/   78
.E KPTN6 20210728 Z DH2006/PLIRP/DIN06/30.01/30.01
.E KPTN6 20210728 Z DH2006/USIRP/DIN06/    4/    4
.E KPTN6 20210728 Z DH2006/UDIRP/DIN06/   33/   26
.E KPTN6 20210728 Z DH2006/UGIRP/DIN06/    6/    5
.E KPTN6 20210728 Z DH2000/TAIRG/DIN06/   77/   78
.E KPTN6 20210728 Z DH2000/PLIRG/DIN06/30.02/30.01
.E KPTN6 20210728 Z DH2000/USIRG/DIN06/    4/    4
.E KPTN6 20210728 Z DH2000/UDIRG/DIN06/   28/   33
.E KPTN6 20210728 Z DH2000/UGIRG/DIN06/    5/    6
.E BATN6 20210728 Z DH2006/TAIRP/DIN06/   80/   80
.E BATN6 20210728 Z DH2006/PLIRP/DIN06/29.99/29.99
.E BATN6 20210728 Z DH2006/TWIRP/DIN06/   75/   75
.E BATN6 20210728 Z DH2006/TAIRG/DIN06/   80/   80
.E BATN6 20210728 Z DH2006/PLIRG/DIN06/29.99/29.99
.E BATN6 20210728 Z DH2006/TWIRG/DIN06/   74/   75
.E TKPN6 20210728 Z DH2000/TAIRG/DIN06/   76/   76
.E TKPN6 20210728 Z DH2000/PLIRG/DIN06/30.00/30.00
.E TKPN6 20210728 Z DH2000/USIRG/DIN06/    0/    0
.E TKPN6 20210728 Z DH2000/UDIRG/DIN06/  316/  347
.E TKPN6 20210728 Z DH2000/UGIRG/DIN06/   10/    2
.E TKPN6 20210728 Z DH2000/TWIRG/DIN06/   78/   77
.E BGNN6 20210728 Z DH2006/TAIRP/DIN06/   81/   81
.E BGNN6 20210728 Z DH2006/PLIRP/DIN06/29.98/29.98
.E BGNN6 20210728 Z DH2006/TWIRP/DIN06/   77/   78
.E BGNN6 20210728 Z DH2000/TAIRG/DIN06/   80/   81
.E BGNN6 20210728 Z DH2000/PLIRG/DIN06/29.98/29.98
.E BGNN6 20210728 Z DH2000/TWIRG/DIN06/   77/   77
.E ROBN4 20210728 Z DH2006/TAIRG/DIN06/   79/   79
.E ROBN4 20210728 Z DH2006/PLIRG/DIN06/29.98/29.98
.E ROBN4 20210728 Z DH2006/USIRG/DIN06/    2/    3
.E ROBN4 20210728 Z DH2006/UDIRG/DIN06/   61/   64
.E ROBN4 20210728 Z DH2006/UGIRG/DIN06/    3/    4
.E SDHN4 20210728 Z DH2000/TAIRG/DIN06/   77/   77
.E SDHN4 20210728 Z DH2000/PLIRG/DIN06/30.01/30.01
.E SDHN4 20210728 Z DH2000/USIRG/DIN06/    8/    7
.E SDHN4 20210728 Z DH2000/UDIRG/DIN06/  191/  163
.E SDHN4 20210728 Z DH2000/UGIRG/DIN06/   11/    9
.A ACYN4 20210728 Z DH2006/TAIRG    72/UGIRG -9999/PLIRG 30.01/UDIRG -9999/USIRG -9999/TWIRG    66/WCIRG -9999
.E CMAN4 20210728 Z DH2006/TAIRP/DIN06/   78/   78
.E CMAN4 20210728 Z DH2006/PLIRP/DIN06/29.97/29.97
.E CMAN4 20210728 Z DH2006/USIRP/DIN06/   11/   12
.E CMAN4 20210728 Z DH2006/UDIRP/DIN06/   82/   79
.E CMAN4 20210728 Z DH2006/UGIRP/DIN06/   15/   13
.E CMAN4 20210728 Z DH2006/TWIRP/DIN06/   74/   74
.E CMAN4 20210728 Z DH2006/TAIRG/DIN06/   78/   78
.E CMAN4 20210728 Z DH2006/PLIRG/DIN06/29.97/29.97
.E CMAN4 20210728 Z DH2006/USIRG/DIN06/   11/   12
.E CMAN4 20210728 Z DH2006/UDIRG/DIN06/   82/   79
.E CMAN4 20210728 Z DH2006/UGIRG/DIN06/   15/   13
.E CMAN4 20210728 Z DH2006/WCIRG/DIN06/45320/44900
.E CMAN4 20210728 Z DH2006/TWIRG/DIN06/   74/   74
.E BDRN4 20210728 Z DH2006/TAIRP/DIN06/   82/   82
.E BDRN4 20210728 Z DH2006/PLIRP/DIN06/29.97/29.97
.E BDRN4 20210728 Z DH2006/USIRP/DIN06/    0/    1
.E BDRN4 20210728 Z DH2006/UDIRP/DIN06/   52/   70
.E BDRN4 20210728 Z DH2006/UGIRP/DIN06/    2/    3
.E BDRN4 20210728 Z DH2006/TWIRP/DIN06/   77/   77
.E BDRN4 20210728 Z DH2000/TAIRG/DIN06/   84/   82
.E BDRN4 20210728 Z DH2000/PLIRG/DIN06/29.97/29.97
.E BDRN4 20210728 Z DH2000/USIRG/DIN06/-9999/    0
.E BDRN4 20210728 Z DH2000/UDIRG/DIN06/-9999/   52
.E BDRN4 20210728 Z DH2000/UGIRG/DIN06/-9999/    2
.E BDRN4 20210728 Z DH2000/TWIRG/DIN06/   77/   77
.E MRCP1 20210728 Z DH2006/TAIRP/DIN06/   83/   83
.E MRCP1 20210728 Z DH2006/PLIRP/DIN06/29.96/29.96
.E MRCP1 20210728 Z DH2006/TWIRP/DIN06/   82/   82
.E MRCP1 20210728 Z DH2000/TAIRG/DIN06/   83/   83
.E MRCP1 20210728 Z DH2000/PLIRG/DIN06/29.96/29.96
.E MRCP1 20210728 Z DH2000/TWIRG/DIN06/   82/   82
.E PHBP1 20210728 Z DH2006/TAIRP/DIN06/   86/   86
.E PHBP1 20210728 Z DH2006/PLIRP/DIN06/29.96/29.96
.E PHBP1 20210728 Z DH2006/TWIRP/DIN06/   79/   79
.E PHBP1 20210728 Z DH2000/TAIRG/DIN06/   86/   86
.E PHBP1 20210728 Z DH2000/PLIRG/DIN06/29.96/29.96
.E PHBP1 20210728 Z DH2000/TWIRG/DIN06/   79/   79
.A BDSP1 20210728 Z DH2006/TAIRG    82/UGIRG -9999/PLIRG 29.97/UDIRG -9999/USIRG -9999/TWIRG    78/WCIRG -9999
.E NBLP1 20210728 Z DH2006/TAIRP/DIN06/   83/   84
.E NBLP1 20210728 Z DH2006/PLIRP/DIN06/29.99/29.99
.E NBLP1 20210728 Z DH2006/USIRP/DIN06/    4/    3
.E NBLP1 20210728 Z DH2006/UDIRP/DIN06/  150/  153
.E NBLP1 20210728 Z DH2006/UGIRP/DIN06/    7/    4
.E NBLP1 20210728 Z DH2006/TWIRP/DIN06/   78/   78
.E NBLP1 20210728 Z DH2000/TAIRG/DIN06/   83/   83
.E NBLP1 20210728 Z DH2000/PLIRG/DIN06/29.99/29.99
.E NBLP1 20210728 Z DH2000/USIRG/DIN06/    4/    4
.E NBLP1 20210728 Z DH2000/UDIRG/DIN06/  143/  150
.E NBLP1 20210728 Z DH2000/UGIRG/DIN06/    6/    7
.E NBLP1 20210728 Z DH2000/TWIRG/DIN06/   78/   78
.E DELD1 20210728 Z DH2006/TAIRP/DIN06/   83/   83
.E DELD1 20210728 Z DH2006/PLIRP/DIN06/29.96/29.96
.E DELD1 20210728 Z DH2006/USIRP/DIN06/    6/    5
.E DELD1 20210728 Z DH2006/UDIRP/DIN06/  116/  119
.E DELD1 20210728 Z DH2006/UGIRP/DIN06/    7/    6
.E DELD1 20210728 Z DH2000/TAIRG/DIN06/   83/   83
.E DELD1 20210728 Z DH2000/PLIRG/DIN06/29.96/29.96
.E DELD1 20210728 Z DH2000/USIRG/DIN06/    6/    6
.E DELD1 20210728 Z DH2000/UDIRG/DIN06/  121/  116
.E DELD1 20210728 Z DH2000/UGIRG/DIN06/    8/    7
.E RDYD1 20210728 Z DH2006/TAIRP/DIN06/   85/   84
.E RDYD1 20210728 Z DH2006/PLIRP/DIN06/29.95/29.95
.E RDYD1 20210728 Z DH2006/TWIRP/DIN06/   84/   84
.E RDYD1 20210728 Z DH2000/TAIRG/DIN06/   84/   85
.E RDYD1 20210728 Z DH2000/PLIRG/DIN06/29.95/29.95
.E RDYD1 20210728 Z DH2000/TWIRG/DIN06/   84/   84
.E BRND1 20210728 Z DH2000/PLIRG/DIN06/29.98/29.98
.E BRND1 20210728 Z DH2000/USIRG/DIN06/   11/   12
.E BRND1 20210728 Z DH2000/UDIRG/DIN06/  140/  143
.E BRND1 20210728 Z DH2000/UGIRG/DIN06/   13/   13
.E LWSD1 20210728 Z DH2006/TAIRP/DIN06/   78/   78
.E LWSD1 20210728 Z DH2006/PLIRP/DIN06/29.98/29.97
.E LWSD1 20210728 Z DH2006/USIRP/DIN06/   12/   13
.E LWSD1 20210728 Z DH2006/UDIRP/DIN06/  114/  104
.E LWSD1 20210728 Z DH2006/UGIRP/DIN06/   16/   15
.E LWSD1 20210728 Z DH2006/TWIRP/DIN06/   77/   77
.E LWSD1 20210728 Z DH2000/TAIRG/DIN06/   78/   78
.E LWSD1 20210728 Z DH2000/PLIRG/DIN06/29.98/29.98
.E LWSD1 20210728 Z DH2000/USIRG/DIN06/   13/   12
.E LWSD1 20210728 Z DH2000/UDIRG/DIN06/  111/  114
.E LWSD1 20210728 Z DH2000/UGIRG/DIN06/   15/   16
.E LWSD1 20210728 Z DH2000/WCIRG/DIN06/44310/44280
.E LWSD1 20210728 Z DH2000/TWIRG/DIN06/   77/   77
.E OCIM2 20210728 Z DH2000/TAIRG/DIN06/   77/   77
.E OCIM2 20210728 Z DH2000/PLIRG/DIN06/30.00/30.00
.E OCIM2 20210728 Z DH2000/USIRG/DIN06/   10/    9
.E OCIM2 20210728 Z DH2000/UDIRG/DIN06/   76/   70
.E OCIM2 20210728 Z DH2000/UGIRG/DIN06/   14/   13
.E OCIM2 20210728 Z DH2000/TWIRG/DIN06/   70/   70
.E BISM2 20210728 Z DH2000/TAIRG/DIN06/   88/   88
.E BISM2 20210728 Z DH2000/PLIRG/DIN06/29.96/29.95
.E BISM2 20210728 Z DH2000/USIRG/DIN06/    5/    4
.E BISM2 20210728 Z DH2000/UDIRG/DIN06/   51/   59
.E BISM2 20210728 Z DH2000/UGIRG/DIN06/    7/    6
.E BISM2 20210728 Z DH2000/TWIRG/DIN06/   88/   88
.E CAMM2 20210728 Z DH2000/TAIRG/DIN06/   88/   88
.E CAMM2 20210728 Z DH2000/PLIRG/DIN06/29.95/29.95
.E CAMM2 20210728 Z DH2000/USIRG/DIN06/    7/    8
.E CAMM2 20210728 Z DH2000/UDIRG/DIN06/  303/  310
.E CAMM2 20210728 Z DH2000/UGIRG/DIN06/    9/   10
.E CAMM2 20210728 Z DH2000/TWIRG/DIN06/   85/   86
.E TCBM2 20210728 Z DH2006/TAIRP/DIN06/   87/   87
.E TCBM2 20210728 Z DH2006/PLIRP/DIN06/29.96/29.96
.E TCBM2 20210728 Z DH2006/USIRP/DIN06/    4/    2
.E TCBM2 20210728 Z DH2006/UDIRP/DIN06/   55/   44
.E TCBM2 20210728 Z DH2006/UGIRP/DIN06/   10/    6
.E TCBM2 20210728 Z DH2006/TWIRP/DIN06/   84/   84
.E TCBM2 20210728 Z DH2000/TAIRG/DIN06/   86/   87
.E TCBM2 20210728 Z DH2000/PLIRG/DIN06/29.97/29.96
.E TCBM2 20210728 Z DH2000/USIRG/DIN06/    4/    4
.E TCBM2 20210728 Z DH2000/UDIRG/DIN06/   24/   55
.E TCBM2 20210728 Z DH2000/UGIRG/DIN06/    6/   10
.E TCBM2 20210728 Z DH2000/TWIRG/DIN06/   84/   84
.E CHCM2 20210728 Z DH2006/TAIRP/DIN06/   84/   85
.E CHCM2 20210728 Z DH2006/PLIRP/DIN06/29.97/29.97
.E CHCM2 20210728 Z DH2006/USIRP/DIN06/    5/    3
.E CHCM2 20210728 Z DH2006/UDIRP/DIN06/  327/  332
.E CHCM2 20210728 Z DH2006/UGIRP/DIN06/    9/    8
.E CHCM2 20210728 Z DH2006/TWIRP/DIN06/   84/   84
.E CHCM2 20210728 Z DH2000/TAIRG/DIN06/   85/   84
.E CHCM2 20210728 Z DH2000/PLIRG/DIN06/29.97/29.97
.E CHCM2 20210728 Z DH2000/USIRG/DIN06/    5/    5
.E CHCM2 20210728 Z DH2000/UDIRG/DIN06/  296/  327
.E CHCM2 20210728 Z DH2000/UGIRG/DIN06/    7/    9
.E CHCM2 20210728 Z DH2000/WCIRG/DIN06/  550/  550
.E CHCM2 20210728 Z DH2000/TWIRG/DIN06/   84/   84
.E BLTM2 20210728 Z DH2006/TAIRP/DIN06/   86/   86
.E BLTM2 20210728 Z DH2006/PLIRP/DIN06/29.94/29.95
.E BLTM2 20210728 Z DH2006/USIRP/DIN06/    5/    6
.E BLTM2 20210728 Z DH2006/UDIRP/DIN06/  147/  173
.E BLTM2 20210728 Z DH2006/UGIRP/DIN06/   10/    9
.E FSKM2 20210728 Z DH2006/TAIRP/DIN06/   84/   84
.E FSKM2 20210728 Z DH2006/PLIRP/DIN06/29.96/29.96
.E FSKM2 20210728 Z DH2006/TAIRG/DIN06/   84/   84
.E FSKM2 20210728 Z DH2006/PLIRG/DIN06/29.96/29.96
.E FSNM2 20210728 Z DH2000/TAIRP/DIN06/   84/   84
.E FSNM2 20210728 Z DH2000/PLIRP/DIN06/29.96/29.96
.E CPVM2 20210728 Z DH2006/TAIRP/DIN06/   84/   84
.E CPVM2 20210728 Z DH2006/TAIRG/DIN06/   84/   84
.E APAM2 20210728 Z DH2000/TAIRG/DIN06/-9999/   86
.E APAM2 20210728 Z DH2000/PLIRG/DIN06/-9999/29.95
.E APAM2 20210728 Z DH2000/USIRG/DIN06/    5/    5
.E APAM2 20210728 Z DH2000/UDIRG/DIN06/  104/   73
.E APAM2 20210728 Z DH2000/UGIRG/DIN06/    7/    8
.E APAM2 20210728 Z DH2000/TWIRG/DIN06/   85/   86
.E COVM2 20210728 Z DH2006/TAIRG/DIN06/   85/   85
.E COVM2 20210728 Z DH2006/PLIRG/DIN06/29.96/29.96
.E SLIM2 20210728 Z DH2000/TAIRG/DIN06/   85/   85
.E SLIM2 20210728 Z DH2000/PLIRG/DIN06/29.94/29.95
.E SLIM2 20210728 Z DH2000/USIRG/DIN06/    9/    8
.E SLIM2 20210728 Z DH2000/UDIRG/DIN06/   91/   78
.E SLIM2 20210728 Z DH2000/UGIRG/DIN06/   11/   10
.E SLIM2 20210728 Z DH2000/TWIRG/DIN06/   84/   84
.E PPTM2 20210728 Z DH2006/USIRP/DIN06/    7/    7
.E PPTM2 20210728 Z DH2006/UDIRP/DIN06/  179/  180
.E PPTM2 20210728 Z DH2006/UGIRP/DIN06/    7/    8
.E PPTM2 20210728 Z DH2000/USIRG/DIN06/    7/    7
.E PPTM2 20210728 Z DH2000/UDIRG/DIN06/  179/  179
.E PPTM2 20210728 Z DH2000/UGIRG/DIN06/    9/    7
.E WASD2 20210728 Z DH2006/TAIRP/DIN06/   92/   91
.E WASD2 20210728 Z DH2006/PLIRP/DIN06/29.96/29.96
.E WASD2 20210728 Z DH2006/USIRP/DIN06/    0/    4
.E WASD2 20210728 Z DH2006/UDIRP/DIN06/  354/   17
.E WASD2 20210728 Z DH2006/UGIRP/DIN06/    6/    7
.E WASD2 20210728 Z DH2006/TWIRP/DIN06/   84/   84
.E WASD2 20210728 Z DH2000/TAIRG/DIN06/   92/   92
.E WASD2 20210728 Z DH2000/PLIRG/DIN06/29.96/29.96
.E WASD2 20210728 Z DH2000/USIRG/DIN06/    2/    0
.E WASD2 20210728 Z DH2000/UDIRG/DIN06/  250/  354
.E WASD2 20210728 Z DH2000/UGIRG/DIN06/    6/    7
.E WASD2 20210728 Z DH2000/TWIRG/DIN06/   84/   84
.E WAHV2 20210728 Z DH2006/TAIRG/DIN06/   83/   83
.E WAHV2 20210728 Z DH2006/PLIRG/DIN06/29.98/29.97
.E WAHV2 20210728 Z DH2006/USIRG/DIN06/   10/    8
.E WAHV2 20210728 Z DH2006/UDIRG/DIN06/   77/   88
.E WAHV2 20210728 Z DH2006/UGIRG/DIN06/   11/   11
.E WAHV2 20210728 Z DH2006/TWIRG/DIN06/   85/   86
.E KPTV2 20210728 Z DH2006/USIRP/DIN06/    2/    2
.E KPTV2 20210728 Z DH2006/UDIRP/DIN06/  173/  182
.E KPTV2 20210728 Z DH2006/UGIRP/DIN06/    3/    2
.E KPTV2 20210728 Z DH2006/TWIRP/DIN06/   80/   79
.E KPTV2 20210728 Z DH2000/USIRG/DIN06/    1/    2
.E KPTV2 20210728 Z DH2000/UDIRG/DIN06/  144/  173
.E KPTV2 20210728 Z DH2000/UGIRG/DIN06/    4/    3
.E KPTV2 20210728 Z DH2000/TWIRG/DIN06/   80/   80
.E RPLV2 20210728 Z DH2006/PLIRP/DIN06/29.99/29.98
.E RPLV2 20210728 Z DH2006/USIRP/DIN06/    3/    1
.E RPLV2 20210728 Z DH2006/UDIRP/DIN06/  111/  102
.E RPLV2 20210728 Z DH2006/UGIRP/DIN06/    6/    3
.E RPLV2 20210728 Z DH2006/PLIRG/DIN06/29.98/29.99
.E RPLV2 20210728 Z DH2006/USIRG/DIN06/    3/    1
.E RPLV2 20210728 Z DH2006/UDIRG/DIN06/  111/  102
.E RPLV2 20210728 Z DH2006/UGIRG/DIN06/    6/    3
.E NCDV2 20210728 Z DH2006/TAIRP/DIN06/   91/   91
.E NCDV2 20210728 Z DH2006/PLIRP/DIN06/29.94/29.94
.E NCDV2 20210728 Z DH2006/USIRP/DIN06/    4/    2
.E NCDV2 20210728 Z DH2006/UDIRP/DIN06/  259/  265
.E NCDV2 20210728 Z DH2006/UGIRP/DIN06/    6/    5
.E NCDV2 20210728 Z DH2006/TWIRP/DIN06/   87/   87
.E NCDV2 20210728 Z DH2000/TAIRG/DIN06/   91/   91
.E NCDV2 20210728 Z DH2000/PLIRG/DIN06/29.94/29.94
.E NCDV2 20210728 Z DH2000/USIRG/DIN06/    4/    4
.E NCDV2 20210728 Z DH2000/UDIRG/DIN06/  264/  259
.E NCDV2 20210728 Z DH2000/UGIRG/DIN06/    8/    6
.E NCDV2 20210728 Z DH2000/TWIRG/DIN06/   87/   87
.E LWTV2 20210728 Z DH2006/TAIRP/DIN06/   87/   87
.E LWTV2 20210728 Z DH2006/PLIRP/DIN06/29.96/29.96
.E LWTV2 20210728 Z DH2006/USIRP/DIN06/    5/    5
.E LWTV2 20210728 Z DH2006/UDIRP/DIN06/   68/   70
.E LWTV2 20210728 Z DH2006/UGIRP/DIN06/    6/    6
.E LWTV2 20210728 Z DH2000/TAIRG/DIN06/   87/   87
.E LWTV2 20210728 Z DH2000/PLIRG/DIN06/29.96/29.96
.E LWTV2 20210728 Z DH2000/USIRG/DIN06/    6/    5
.E LWTV2 20210728 Z DH2000/UDIRG/DIN06/   67/   68
.E LWTV2 20210728 Z DH2000/UGIRG/DIN06/    8/    6
.E LWTV2 20210728 Z DH2000/WCIRG/DIN06/20470/20470
.E YKRV2 20210728 Z DH2006/TAIRP/DIN06/   80/   80
.E YKRV2 20210728 Z DH2006/TAIRG/DIN06/   80/   80
.E YKTV2 20210728 Z DH2006/TAIRP/DIN06/   80/   80
.E YKTV2 20210728 Z DH2006/PLIRP/DIN06/29.96/29.96
.E YKTV2 20210728 Z DH2006/USIRP/DIN06/    6/    6
.E YKTV2 20210728 Z DH2006/UDIRP/DIN06/  171/  159
.E YKTV2 20210728 Z DH2006/UGIRP/DIN06/    9/    8
.E YKTV2 20210728 Z DH2006/TWIRP/DIN06/   82/   82
.A YKTV2 20210728 Z DH2006/TAIRG    80/UGIRG     9/PLIRG 29.96/UDIRG   171/USIRG     6/TWIRG    82/WCIRG 25700
.E DOMV2 20210728 Z DH2006/TAIRP/DIN06/   76/   77
.E DOMV2 20210728 Z DH2006/PLIRP/DIN06/29.98/29.98
.E DOMV2 20210728 Z DH2000/TAIRG/DIN06/   76/   76
.E DOMV2 20210728 Z DH2000/PLIRG/DIN06/29.98/29.98
.E CRYV2 20210728 Z DH2006/TAIRP/DIN06/   78/   78
.E CRYV2 20210728 Z DH2006/PLIRP/DIN06/29.98/29.97
.E CRYV2 20210728 Z DH2006/TAIRG/DIN06/   78/   78
.E CRYV2 20210728 Z DH2006/PLIRG/DIN06/29.98/29.98
.E SWPV2 20210728 Z DH2000/PLIRG/DIN06/29.98/29.98
.E SWPV2 20210728 Z DH2000/WCIRG/DIN06/31470/31500
.E SWPV2 20210728 Z DH2000/TWIRG/DIN06/   81/   81
.E WDSV2 20210728 Z DH2006/TAIRP/DIN06/   77/   77
.E WDSV2 20210728 Z DH2006/PLIRP/DIN06/29.98/29.98
.E WDSV2 20210728 Z DH2000/TAIRG/DIN06/   78/   77
.E WDSV2 20210728 Z DH2000/PLIRG/DIN06/29.98/29.98
.E CHBV2 20210728 Z DH2006/TAIRP/DIN06/   78/   79
.E CHBV2 20210728 Z DH2006/PLIRP/DIN06/29.95/29.95
.E CHBV2 20210728 Z DH2006/USIRP/DIN06/    7/    5
.E CHBV2 20210728 Z DH2006/UDIRP/DIN06/  131/  148
.E CHBV2 20210728 Z DH2006/UGIRP/DIN06/    9/    8
.E CHBV2 20210728 Z DH2000/TAIRG/DIN06/   77/   78
.E CHBV2 20210728 Z DH2000/PLIRG/DIN06/29.95/29.95
.E CHBV2 20210728 Z DH2000/USIRG/DIN06/    4/    7
.E CHBV2 20210728 Z DH2000/UDIRG/DIN06/  122/  131
.E CHBV2 20210728 Z DH2000/UGIRG/DIN06/    7/    9
.E CHYV2 20210728 Z DH2006/TAIRP/DIN06/   78/   78
.E CHYV2 20210728 Z DH2006/PLIRP/DIN06/29.98/29.98
.E MNPV2 20210728 Z DH2006/TAIRP/DIN06/   78/   78
.E MNPV2 20210728 Z DH2006/PLIRP/DIN06/29.97/29.96
.E MNPV2 20210728 Z DH2006/USIRP/DIN06/    1/    2
.E MNPV2 20210728 Z DH2006/UDIRP/DIN06/  236/  208
.E MNPV2 20210728 Z DH2006/UGIRP/DIN06/    4/    2
.E MNPV2 20210728 Z DH2006/TWIRP/DIN06/   83/   83
.E MNPV2 20210728 Z DH2000/TAIRG/DIN06/   78/   78
.E MNPV2 20210728 Z DH2000/PLIRG/DIN06/29.97/29.97
.E MNPV2 20210728 Z DH2000/USIRG/DIN06/    3/    1
.E MNPV2 20210728 Z DH2000/UDIRG/DIN06/  222/  236
.E MNPV2 20210728 Z DH2000/UGIRG/DIN06/    6/    4
.E MNPV2 20210728 Z DH2000/WCIRG/DIN06/36880/36700
.E MNPV2 20210728 Z DH2000/TWIRG/DIN06/   83/   83
.E DUKN7 20210728 Z DH2006/TAIRP/DIN06/   80/   80
.E DUKN7 20210728 Z DH2006/PLIRP/DIN06/29.93/29.94
.E DUKN7 20210728 Z DH2006/USIRP/DIN06/   23/   24
.E DUKN7 20210728 Z DH2006/UDIRP/DIN06/  170/  175
.E DUKN7 20210728 Z DH2006/UGIRP/DIN06/   24/   26
.E DUKN7 20210728 Z DH2006/TAIRG/DIN06/   80/   80
.E DUKN7 20210728 Z DH2006/PLIRG/DIN06/29.93/29.94
.E DUKN7 20210728 Z DH2006/USIRG/DIN06/   23/   24
.E DUKN7 20210728 Z DH2006/UDIRG/DIN06/  170/  175
.E DUKN7 20210728 Z DH2006/UGIRG/DIN06/   24/   26
.E ORIN7 20210728 Z DH2000/TAIRG/DIN06/   79/   79
.E ORIN7 20210728 Z DH2000/PLIRG/DIN06/29.98/29.97
.E ORIN7 20210728 Z DH2000/USIRG/DIN06/   14/   16
.E ORIN7 20210728 Z DH2000/UDIRG/DIN06/  179/  172
.E ORIN7 20210728 Z DH2000/UGIRG/DIN06/   19/   18
.E ORIN7 20210728 Z DH2000/TWIRG/DIN06/   83/   83
.E HCGN7 20210728 Z DH2006/TAIRP/DIN06/   79/   79
.E HCGN7 20210728 Z DH2006/PLIRP/DIN06/29.99/29.99
.E HCGN7 20210728 Z DH2006/USIRP/DIN06/   11/    9
.E HCGN7 20210728 Z DH2006/UDIRP/DIN06/  182/  182
.E HCGN7 20210728 Z DH2006/UGIRP/DIN06/   15/   15
.E HCGN7 20210728 Z DH2006/TWIRP/DIN06/   82/   82
.E HCGN7 20210728 Z DH2000/TAIRG/DIN06/   79/   79
.E HCGN7 20210728 Z DH2000/PLIRG/DIN06/30.00/29.99
.E HCGN7 20210728 Z DH2000/USIRG/DIN06/    8/   11
.E HCGN7 20210728 Z DH2000/UDIRG/DIN06/  185/  182
.E HCGN7 20210728 Z DH2000/UGIRG/DIN06/   17/   15
.E HCGN7 20210728 Z DH2000/TWIRG/DIN06/   81/   82
.E BFTN7 20210728 Z DH2006/TAIRP/DIN06/   78/   78
.E BFTN7 20210728 Z DH2006/PLIRP/DIN06/30.01/30.00
.E BFTN7 20210728 Z DH2006/USIRP/DIN06/   16/   16
.E BFTN7 20210728 Z DH2006/UDIRP/DIN06/  119/  119
.E BFTN7 20210728 Z DH2006/UGIRP/DIN06/   22/   20
.E BFTN7 20210728 Z DH2006/TWIRP/DIN06/   85/   85
.E BFTN7 20210728 Z DH2000/TAIRG/DIN06/   78/   78
.E BFTN7 20210728 Z DH2000/PLIRG/DIN06/30.01/30.01
.E BFTN7 20210728 Z DH2000/USIRG/DIN06/   20/   16
.E BFTN7 20210728 Z DH2000/UDIRG/DIN06/  113/  119
.E BFTN7 20210728 Z DH2000/UGIRG/DIN06/   26/   22
.E BFTN7 20210728 Z DH2000/TWIRG/DIN06/   85/   85
.E WLON7 20210728 Z DH2006/TAIRP/DIN06/   85/   84
.E WLON7 20210728 Z DH2006/PLIRP/DIN06/29.97/29.97
.E WLON7 20210728 Z DH2006/TWIRP/DIN06/   84/   84
.A WLON7 20210728 Z DH2006/TAIRG    85/UGIRG -9999/PLIRG 29.97/UDIRG -9999/USIRG -9999/TWIRG    84/WCIRG -9999
.E JMPN7 20210728 Z DH2006/TAIRP/DIN06/   82/   82
.E JMPN7 20210728 Z DH2006/PLIRP/DIN06/29.96/29.96
.E JMPN7 20210728 Z DH2006/USIRP/DIN06/    9/    8
.E JMPN7 20210728 Z DH2006/UDIRP/DIN06/  169/  163
.E JMPN7 20210728 Z DH2006/UGIRP/DIN06/   10/    9
.E JMPN7 20210728 Z DH2006/TWIRP/DIN06/   82/   82
.A JMPN7 20210728 Z DH2006/TAIRG    82/UGIRG    10/PLIRG 29.96/UDIRG   169/USIRG     9/TWIRG    82/WCIRG -9999
.E MROS1 20210728 Z DH2006/TAIRP/DIN06/   82/   82
.E MROS1 20210728 Z DH2006/PLIRP/DIN06/30.00/30.00
.A MROS1 20210728 Z DH2006/TAIRG    82/UGIRG -9999/PLIRG 30.00/UDIRG -9999/USIRG -9999/TWIRG -9999/WCIRG -9999
.E FPKG1 20210728 Z DH2006/PLIRP/DIN06/29.97/29.97
.E FPKG1 20210728 Z DH2006/TWIRP/DIN06/   83/   83
.E FPKG1 20210728 Z DH2000/TAIRG/DIN06/   84/   85
.E FPKG1 20210728 Z DH2000/PLIRG/DIN06/29.98/29.97
.E FPKG1 20210728 Z DH2000/TWIRG/DIN06/   83/   83
.E NFDF1 20210728 Z DH2006/TAIRP/DIN06/   91/   91
.E NFDF1 20210728 Z DH2006/PLIRP/DIN06/29.95/29.95
.E NFDF1 20210728 Z DH2006/TAIRG/DIN06/   91/   91
.E NFDF1 20210728 Z DH2006/PLIRG/DIN06/29.95/29.95
.E MYPF1 20210728 Z DH2006/TAIRP/DIN06/   85/   85
.E MYPF1 20210728 Z DH2006/PLIRP/DIN06/29.98/29.97
.E MYPF1 20210728 Z DH2006/USIRP/DIN06/    9/    9
.E MYPF1 20210728 Z DH2006/UDIRP/DIN06/   68/   72
.E MYPF1 20210728 Z DH2006/UGIRP/DIN06/   13/   11
.E MYPF1 20210728 Z DH2006/TWIRP/DIN06/   84/   84
.E MYPF1 20210728 Z DH2006/TAIRG/DIN06/   85/   85
.E MYPF1 20210728 Z DH2006/PLIRG/DIN06/29.98/29.97
.E MYPF1 20210728 Z DH2006/USIRG/DIN06/    9/    9
.E MYPF1 20210728 Z DH2006/UDIRG/DIN06/   68/   72
.E MYPF1 20210728 Z DH2006/UGIRG/DIN06/   13/   11
.E MYPF1 20210728 Z DH2006/WCIRG/DIN06/50190/49900
.E MYPF1 20210728 Z DH2006/TWIRG/DIN06/   84/   84
.E LTJF1 20210728 Z DH2006/TAIRP/DIN06/   87/   87
.E BLIF1 20210728 Z DH2006/TAIRP/DIN06/   88/   89
.E BLIF1 20210728 Z DH2006/PLIRP/DIN06/29.96/29.96
.E BLIF1 20210728 Z DH2000/TAIRG/DIN06/   89/   88
.E BLIF1 20210728 Z DH2000/PLIRG/DIN06/29.96/29.96
.E BKBF1 20210728 Z DH2006/TAIRP/DIN06/   89/   89
.E BKBF1 20210728 Z DH2006/PLIRP/DIN06/29.96/29.96
.E BKBF1 20210728 Z DH2006/TAIRG/DIN06/   89/   89
.E BKBF1 20210728 Z DH2006/PLIRG/DIN06/29.96/29.96
.E TRDF1 20210728 Z DH2006/TAIRP/DIN06/   76/   75
.E TRDF1 20210728 Z DH2006/PLIRP/DIN06/30.04/30.04
.E TRDF1 20210728 Z DH2006/USIRP/DIN06/    2/    0
.E TRDF1 20210728 Z DH2006/UDIRP/DIN06/    8/   70
.E TRDF1 20210728 Z DH2006/UGIRP/DIN06/    3/    2
.E TRDF1 20210728 Z DH2006/TWIRP/DIN06/   84/   84
.A LKWF1 20210728 Z DH2006/TAIRG -9999/UGIRG    27/PLIRG 30.02/UDIRG   273/USIRG    17/TWIRG    85/WCIRG -9999
.E PEGF1 20210728 Z DH2006/TAIRP/DIN06/   87/   87
.E PEGF1 20210728 Z DH2006/PLIRP/DIN06/30.02/30.03
.E PEGF1 20210728 Z DH2006/TWIRP/DIN06/  101/  100
.E PEGF1 20210728 Z DH2000/TAIRG/DIN06/   86/   87
.E PEGF1 20210728 Z DH2000/PLIRG/DIN06/30.03/30.02
.E PEGF1 20210728 Z DH2000/TWIRG/DIN06/  101/  101
.E VAKF1 20210728 Z DH2006/TAIRP/DIN06/   85/   85
.E VAKF1 20210728 Z DH2006/PLIRP/DIN06/30.03/30.03
.E VAKF1 20210728 Z DH2006/USIRP/DIN06/   13/   12
.E VAKF1 20210728 Z DH2006/UDIRP/DIN06/  194/  186
.E VAKF1 20210728 Z DH2006/UGIRP/DIN06/   17/   15
.E VAKF1 20210728 Z DH2006/TWIRP/DIN06/   92/   92
.E VAKF1 20210728 Z DH2000/TAIRG/DIN06/   85/   85
.E VAKF1 20210728 Z DH2000/PLIRG/DIN06/30.03/30.03
.E VAKF1 20210728 Z DH2000/USIRG/DIN06/   16/   13
.E VAKF1 20210728 Z DH2000/UDIRG/DIN06/  191/  194
.E VAKF1 20210728 Z DH2000/UGIRG/DIN06/   18/   17
.E VAKF1 20210728 Z DH2000/TWIRG/DIN06/   92/   92
.E VCAF1 20210728 Z DH2006/TAIRP/DIN06/   87/   87
.E VCAF1 20210728 Z DH2006/PLIRP/DIN06/30.03/30.02
.E VCAF1 20210728 Z DH2006/USIRP/DIN06/    4/    4
.E VCAF1 20210728 Z DH2006/UDIRP/DIN06/  313/  332
.E VCAF1 20210728 Z DH2006/UGIRP/DIN06/    6/    6
.E VCAF1 20210728 Z DH2006/TWIRP/DIN06/   91/   91
.E VCAF1 20210728 Z DH2006/TAIRG/DIN06/   87/   87
.E VCAF1 20210728 Z DH2006/PLIRG/DIN06/30.03/30.02
.E VCAF1 20210728 Z DH2006/USIRG/DIN06/    4/    4
.E VCAF1 20210728 Z DH2006/UDIRG/DIN06/  313/  332
.E VCAF1 20210728 Z DH2006/UGIRG/DIN06/    6/    6
.E VCAF1 20210728 Z DH2006/TWIRG/DIN06/   91/   91
.E BARA9 20210728 Z DH2000/TAIRG/DIN06/   83/   83
.E BARA9 20210728 Z DH2000/PLIRG/DIN06/29.95/29.95



USA.gov is the U.S. government's official web portal to all federal, state and local government web resources and services.